createdAt,value
2023-02-17T00:01:33.133Z,31.92
2023-02-17T00:04:00.396Z,29.42
2023-02-17T00:06:47.998Z,32.10
2023-02-17T00:09:14.880Z,34.90
2023-02-17T00:11:42.202Z,33.28
2023-02-17T00:14:12.291Z,30.20
2023-02-17T00:16:39.182Z,29.30
2023-02-17T00:19:25.071Z,32.15
2023-02-17T00:21:57.701Z,32.75
2023-02-17T00:24:26.233Z,34.80
2023-02-17T00:26:53.396Z,31.63
2023-02-17T00:29:20.644Z,36.85
2023-02-17T00:31:48.089Z,36.17
2023-02-17T00:34:17.556Z,37.20
2023-02-17T00:36:44.561Z,35.20
2023-02-17T00:39:16.801Z,36.30
2023-02-17T00:41:43.988Z,36.15
2023-02-17T00:44:17.734Z,36.17
2023-02-17T00:46:45.431Z,37.10
2023-02-17T00:49:21.898Z,34.03
2023-02-17T00:51:51.196Z,35.08
2023-02-17T00:54:18.746Z,34.78
2023-02-17T00:56:46.086Z,36.50
2023-02-17T00:59:13.296Z,38.80
2023-02-17T01:01:40.298Z,36.22
2023-02-17T01:04:11.981Z,34.97
2023-02-17T01:06:40.004Z,34.50
2023-02-17T01:09:09.152Z,41.05
2023-02-17T01:11:39.530Z,36.67
2023-02-17T01:14:09.039Z,39.25
2023-02-17T01:16:38.770Z,37.38
2023-02-17T01:19:11.012Z,37.03
2023-02-17T01:21:38.174Z,38.28
2023-02-17T01:24:07.802Z,39.05
2023-02-17T01:26:36.859Z,38.28
2023-02-17T01:29:04.742Z,37.83
2023-02-17T01:31:31.690Z,39.78
2023-02-17T01:34:00.476Z,34.75
2023-02-17T01:36:27.529Z,38.67
2023-02-17T01:38:57.080Z,38.33
2023-02-17T01:41:28.916Z,35.17
2023-02-17T01:44:17.717Z,40.28
2023-02-17T01:49:37.275Z,37.83
2023-02-17T01:52:06.116Z,40.70
2023-02-17T01:54:40.409Z,37.03
2023-02-17T01:57:10.076Z,35.63
2023-02-17T01:59:37.231Z,33.40
2023-02-17T02:02:05.558Z,36.58
2023-02-17T02:04:34.311Z,37.03
2023-02-17T02:07:06.817Z,37.22
2023-02-17T02:09:47.713Z,37.88
2023-02-17T02:14:50.326Z,37.55
2023-02-17T02:17:33.126Z,41.25
2023-02-17T02:20:13.796Z,39.75
2023-02-17T02:23:10.227Z,42.58
2023-02-17T02:26:05.418Z,42.25
2023-02-17T02:29:11.609Z,45.25
2023-02-17T02:32:00.458Z,46.28
2023-02-17T02:34:34.743Z,42.67
2023-02-17T02:37:33.118Z,45.63
2023-02-17T02:40:01.801Z,43.63
2023-02-17T02:42:30.308Z,45.42
2023-02-17T02:44:57.511Z,44.15
2023-02-17T02:47:43.819Z,40.45
2023-02-17T02:50:15.598Z,49.08
2023-02-17T02:53:24.369Z,50.13
2023-02-17T02:56:03.292Z,42.90
2023-02-17T02:58:52.582Z,42.17
2023-02-17T03:02:00.441Z,42.70
2023-02-17T03:04:36.761Z,44.10
2023-02-17T03:07:11.832Z,48.30
2023-02-17T03:09:39.592Z,42.63
2023-02-17T03:12:06.945Z,44.42
2023-02-17T03:14:37.057Z,50.15
2023-02-17T03:17:04.434Z,46.53
2023-02-17T03:19:31.315Z,49.88
2023-02-17T03:22:05.100Z,44.25
2023-02-17T03:24:33.092Z,47.17
2023-02-17T03:26:59.942Z,48.83
2023-02-17T03:29:26.972Z,41.67
2023-02-17T03:31:53.912Z,43.08
2023-02-17T03:34:21.165Z,47.30
2023-02-17T03:36:48.134Z,45.13
2023-02-17T03:39:15.332Z,43.70
2023-02-17T03:41:42.080Z,47.67
2023-02-17T03:44:08.950Z,48.03
2023-02-17T03:46:36.286Z,48.50
2023-02-17T03:49:03.183Z,46.45
2023-02-17T03:51:29.968Z,49.15
2023-02-17T03:53:56.786Z,51.95
2023-02-17T03:56:23.559Z,45.30
2023-02-17T03:58:50.532Z,49.55
2023-02-17T04:01:17.540Z,45.90
2023-02-17T04:03:44.566Z,47.03
2023-02-17T04:06:11.995Z,46.30
2023-02-17T04:08:39.698Z,48.75
2023-02-17T04:11:08.060Z,44.38
2023-02-17T04:13:35.161Z,48.47
2023-02-17T04:16:04.693Z,47.92
2023-02-17T04:18:32.248Z,51.30
2023-02-17T04:20:59.077Z,56.47
2023-02-17T04:23:25.892Z,47.35
2023-02-17T04:25:52.888Z,43.10
2023-02-17T04:28:21.531Z,48.78
2023-02-17T04:30:50.584Z,76.07
2023-02-17T04:33:18.086Z,126.55
2023-02-17T04:35:45.610Z,74.05
2023-02-17T04:38:12.310Z,49.88
2023-02-17T04:40:39.201Z,50.65
2023-02-17T04:43:06.070Z,53.00
2023-02-17T04:45:32.853Z,44.97
2023-02-17T04:47:59.520Z,365.42
2023-02-17T04:50:29.639Z,146.15
2023-02-17T04:52:56.332Z,77.85
2023-02-17T04:55:23.081Z,48.80
2023-02-17T04:57:49.815Z,39.55
2023-02-17T05:00:16.829Z,43.08
2023-02-17T05:02:43.568Z,40.95
2023-02-17T05:05:10.520Z,47.50
2023-02-17T05:07:37.375Z,40.33
2023-02-17T05:10:04.349Z,41.33
2023-02-17T05:12:31.039Z,42.20
2023-02-17T05:14:57.844Z,38.75
2023-02-17T05:17:28.188Z,41.50
2023-02-17T05:19:58.368Z,44.45
2023-02-17T05:22:25.726Z,40.83
2023-02-17T05:24:52.433Z,40.80
2023-02-17T05:27:19.322Z,48.53
2023-02-17T05:29:46.457Z,41.92
2023-02-17T05:32:13.578Z,43.35
2023-02-17T05:34:40.244Z,44.55
2023-02-17T05:37:06.986Z,43.28
2023-02-17T05:39:33.659Z,42.53
2023-02-17T05:42:00.356Z,42.80
2023-02-17T05:44:27.302Z,44.63
2023-02-17T05:46:54.299Z,45.47
2023-02-17T05:49:21.124Z,44.22
2023-02-17T05:51:47.891Z,50.50
2023-02-17T05:54:14.593Z,43.10
2023-02-17T05:56:41.319Z,43.45
2023-02-17T05:59:07.981Z,45.53
2023-02-17T06:01:37.075Z,46.17
2023-02-17T06:04:04.774Z,42.88
2023-02-17T06:06:31.479Z,39.22
2023-02-17T06:08:58.182Z,42.20
2023-02-17T06:11:25.890Z,42.80
2023-02-17T06:13:52.563Z,42.88
2023-02-17T06:16:19.282Z,46.67
2023-02-17T06:18:45.957Z,45.83
2023-02-17T06:21:12.693Z,45.80
2023-02-17T06:23:39.346Z,42.20
2023-02-17T06:26:06.245Z,40.72
2023-02-17T06:28:35.069Z,42.58
2023-02-17T06:31:01.988Z,39.95
2023-02-17T06:33:28.894Z,40.05
2023-02-17T06:35:55.521Z,42.30
2023-02-17T06:38:22.192Z,39.13
2023-02-17T06:40:48.880Z,39.92
2023-02-17T06:43:15.623Z,38.95
2023-02-17T06:45:42.402Z,40.92
2023-02-17T06:48:09.137Z,44.03
2023-02-17T06:50:38.677Z,38.03
2023-02-17T06:53:05.391Z,38.20
2023-02-17T06:55:32.173Z,35.65
2023-02-17T06:57:58.888Z,38.90
2023-02-17T07:00:27.171Z,36.58
2023-02-17T07:02:54.042Z,38.33
2023-02-17T07:05:20.863Z,39.08
2023-02-17T07:07:47.557Z,36.42
2023-02-17T07:10:14.249Z,34.00
2023-02-17T07:12:45.011Z,37.05
2023-02-17T07:17:39.340Z,34.80
2023-02-17T07:20:06.823Z,32.40
2023-02-17T07:22:33.490Z,38.95
2023-02-17T07:25:00.233Z,31.73
2023-02-17T07:27:27.012Z,33.83
2023-02-17T07:29:53.758Z,33.55
2023-02-17T07:32:20.535Z,34.15
2023-02-17T07:34:47.412Z,32.20
2023-02-17T07:37:16.230Z,29.77
2023-02-17T07:39:43.109Z,34.65
2023-02-17T07:42:10.080Z,28.95
2023-02-17T07:44:36.890Z,32.47
2023-02-17T07:47:03.733Z,29.60
2023-02-17T07:49:30.747Z,28.20
2023-02-17T07:51:57.680Z,28.65
2023-02-17T07:54:24.832Z,28.85
2023-02-17T07:56:54.076Z,32.30
2023-02-17T07:59:20.837Z,31.48
2023-02-17T08:01:48.032Z,28.42
2023-02-17T08:04:14.872Z,30.85
2023-02-17T08:06:41.562Z,28.83
2023-02-17T08:09:29.029Z,26.55
2023-02-17T08:12:14.582Z,26.20
2023-02-17T08:14:41.237Z,24.63
2023-02-17T08:17:08.066Z,29.35
2023-02-17T08:19:47.642Z,25.80
2023-02-17T08:22:16.884Z,30.67
2023-02-17T08:24:43.653Z,28.20
2023-02-17T08:27:10.377Z,25.23
2023-02-17T08:29:37.077Z,22.23
2023-02-17T08:32:04.326Z,24.75
2023-02-17T08:34:33.906Z,25.50
2023-02-17T08:37:01.845Z,25.90
2023-02-17T08:39:28.774Z,24.13
2023-02-17T08:41:55.705Z,23.80
2023-02-17T08:44:22.716Z,27.75
2023-02-17T08:46:50.673Z,24.02
2023-02-17T08:49:19.901Z,24.65
2023-02-17T08:51:47.740Z,23.48
2023-02-17T08:54:15.003Z,26.77
2023-02-17T08:56:42.439Z,26.05
2023-02-17T08:59:09.684Z,22.48
2023-02-17T09:01:37.246Z,26.17
2023-02-17T09:04:05.749Z,26.27
2023-02-17T09:06:43.458Z,27.75
2023-02-17T09:09:12.076Z,26.45
2023-02-17T09:11:39.062Z,23.48
2023-02-17T09:14:06.722Z,26.95
2023-02-17T09:16:33.871Z,23.00
2023-02-17T09:19:00.867Z,31.70
2023-02-17T09:21:27.800Z,24.27
2023-02-17T09:23:54.541Z,22.42
2023-02-17T09:26:21.419Z,22.98
2023-02-17T09:28:48.099Z,22.30
2023-02-17T09:31:19.570Z,25.80
2023-02-17T09:33:50.005Z,23.95
2023-02-17T09:36:22.645Z,20.58
2023-02-17T09:38:49.830Z,23.17
2023-02-17T09:41:42.690Z,24.95
2023-02-17T09:44:43.344Z,23.38
2023-02-17T09:47:39.395Z,25.83
2023-02-17T10:12:57.062Z,22.35
2023-02-17T10:15:49.171Z,24.65
2023-02-17T10:18:52.418Z,26.40
2023-02-17T10:21:26.243Z,26.23
2023-02-17T10:33:53.254Z,25.75
2023-02-17T10:36:41.210Z,24.83
2023-02-17T10:39:25.676Z,26.70
2023-02-17T10:42:03.885Z,28.13
2023-02-17T10:44:48.784Z,30.58
2023-02-17T10:50:52.150Z,27.48
2023-02-17T10:53:43.629Z,27.13
2023-02-17T10:56:43.702Z,27.38
2023-02-17T10:59:48.043Z,26.10
2023-02-17T11:02:46.615Z,26.55
2023-02-17T11:05:40.531Z,33.10
2023-02-17T11:08:30.693Z,26.92
2023-02-17T11:11:16.044Z,24.00
2023-02-17T11:14:31.335Z,25.77
2023-02-17T11:17:14.531Z,26.02
2023-02-17T11:19:54.904Z,29.23
2023-02-17T11:23:05.519Z,29.60
2023-02-17T11:25:34.737Z,23.08
2023-02-17T11:28:10.737Z,27.33
2023-02-17T11:30:41.200Z,27.88
2023-02-17T11:33:22.846Z,24.60
2023-02-17T11:35:53.401Z,25.85
2023-02-17T11:38:23.286Z,24.40
2023-02-17T11:41:00.363Z,26.40
2023-02-17T11:43:30.190Z,24.65
2023-02-17T11:46:31.225Z,26.37
2023-02-17T11:51:55.623Z,25.98
2023-02-17T11:58:21.452Z,24.05
2023-02-17T12:01:37.180Z,23.67
2023-02-17T12:04:18.514Z,21.50
2023-02-17T12:43:56.633Z,17.92
2023-02-17T12:46:30.071Z,15.70
2023-02-17T12:49:01.949Z,17.73
2023-02-17T12:51:42.160Z,16.10
2023-02-17T12:54:23.889Z,17.40
2023-02-17T12:56:57.845Z,15.77
2023-02-17T12:59:33.150Z,16.17
2023-02-17T13:02:07.804Z,14.90
2023-02-17T13:04:38.182Z,15.32
2023-02-17T13:10:30.518Z,15.55
2023-02-17T13:13:04.266Z,16.65
2023-02-17T13:15:36.277Z,14.02
2023-02-17T13:18:31.606Z,15.05
2023-02-17T13:21:27.803Z,12.27
2023-02-17T13:24:15.830Z,11.73
2023-02-17T13:26:45.596Z,12.57
2023-02-17T13:29:19.991Z,9.85
2023-02-17T13:31:50.833Z,12.25
2023-02-17T13:34:44.631Z,10.68
2023-02-17T13:37:28.405Z,10.02
2023-02-17T13:40:01.558Z,12.05
2023-02-17T13:42:36.205Z,11.43
2023-02-17T13:45:14.765Z,12.45
2023-02-17T13:47:43.476Z,12.85
2023-02-17T13:50:44.464Z,19.30
2023-02-17T13:55:47.389Z,9.25
2023-02-17T13:58:51.138Z,11.40
2023-02-17T14:01:37.380Z,12.68
2023-02-17T14:04:05.138Z,10.43
2023-02-17T14:06:40.584Z,12.57
2023-02-17T14:09:24.316Z,12.10
2023-02-17T14:11:52.618Z,12.05
2023-02-17T14:17:33.418Z,13.40
2023-02-17T14:20:06.742Z,11.00
2023-02-17T14:23:03.417Z,11.27
2023-02-17T14:26:36.107Z,11.77
2023-02-17T14:29:19.904Z,19.35
2023-02-17T14:31:53.072Z,17.38
2023-02-17T14:34:37.487Z,14.77
2023-02-17T14:37:26.983Z,18.48
2023-02-17T14:40:04.059Z,14.98
2023-02-17T14:42:48.166Z,15.70
2023-02-17T14:59:23.037Z,19.58
2023-02-17T15:02:06.764Z,15.30
2023-02-17T15:04:51.282Z,16.55
2023-02-17T15:07:55.594Z,18.58
2023-02-17T15:10:28.917Z,15.90
2023-02-17T15:12:57.111Z,16.48
2023-02-17T15:19:52.181Z,16.88
2023-02-17T15:22:22.131Z,16.08
2023-02-17T16:13:52.826Z,14.85
2023-02-17T16:16:57.395Z,14.00
2023-02-17T16:20:02.416Z,14.60
2023-02-17T16:22:31.624Z,11.23
2023-02-17T16:24:58.282Z,12.82
2023-02-17T16:27:25.312Z,13.35
2023-02-17T16:30:09.715Z,11.38
2023-02-17T16:38:52.604Z,12.02
2023-02-17T16:41:20.440Z,9.00
2023-02-17T16:43:47.700Z,9.13
2023-02-17T16:46:31.597Z,9.65
2023-02-17T16:49:03.852Z,11.65
2023-02-17T16:51:30.942Z,8.90
2023-02-17T16:53:58.223Z,9.75
2023-02-17T16:56:30.631Z,8.00
2023-02-17T16:58:57.505Z,7.35
2023-02-17T17:01:25.719Z,9.10
2023-02-17T17:03:52.628Z,6.90
2023-02-17T17:06:27.271Z,7.13
2023-02-17T17:08:54.690Z,7.18
2023-02-17T17:11:24.397Z,6.00
2023-02-17T17:13:52.325Z,6.67
2023-02-17T17:16:26.094Z,6.28
2023-02-17T17:18:52.926Z,5.50
2023-02-17T17:21:20.071Z,7.20
2023-02-17T17:23:47.014Z,7.63
2023-02-17T17:26:39.386Z,5.00
2023-02-17T17:29:07.894Z,7.45
2023-02-17T17:31:34.745Z,5.70
2023-02-17T17:34:01.482Z,6.88
2023-02-17T17:36:30.631Z,5.28
2023-02-17T17:38:58.171Z,8.05
2023-02-17T17:41:27.265Z,6.97
2023-02-17T17:43:57.503Z,6.07
2023-02-17T17:46:36.283Z,7.00
2023-02-17T17:49:05.207Z,10.00
2023-02-17T17:51:32.879Z,7.18
2023-02-17T17:53:59.962Z,7.00
2023-02-17T17:56:30.226Z,7.30
2023-02-17T17:58:59.008Z,7.70
2023-02-17T18:01:26.536Z,22.75
2023-02-17T18:03:53.301Z,10.40
2023-02-17T18:06:25.176Z,23.10
2023-02-17T18:08:53.268Z,6.15
2023-02-17T18:11:21.175Z,5.45
2023-02-17T18:13:50.847Z,5.07
2023-02-17T18:16:19.745Z,6.95
2023-02-17T18:18:46.840Z,8.05
2023-02-17T18:21:13.640Z,3.13
2023-02-17T18:23:40.369Z,6.43
2023-02-17T18:26:08.755Z,4.63
2023-02-17T18:28:36.613Z,8.75
2023-02-17T18:31:08.437Z,5.15
2023-02-17T18:33:35.514Z,4.13
2023-02-17T18:36:12.839Z,5.75
2023-02-17T18:38:39.691Z,7.32
2023-02-17T18:41:06.939Z,7.93
2023-02-17T18:43:33.901Z,5.07
2023-02-17T18:46:00.775Z,6.97
2023-02-17T18:48:27.549Z,5.97
2023-02-17T18:50:54.257Z,7.65
2023-02-17T18:53:23.463Z,8.43
2023-02-17T18:55:50.177Z,6.78
2023-02-17T18:58:17.647Z,12.90
2023-02-17T19:00:44.338Z,11.77
2023-02-17T19:03:11.051Z,12.43
2023-02-17T19:05:37.765Z,9.18
2023-02-17T19:08:04.744Z,87.28
2023-02-17T19:10:31.462Z,8.85
2023-02-17T19:12:58.164Z,12.50
2023-02-17T19:15:24.936Z,9.88
2023-02-17T19:17:58.496Z,6.35
2023-02-17T19:20:28.802Z,10.50
2023-02-17T19:22:55.598Z,6.05
2023-02-17T19:25:22.349Z,11.38
2023-02-17T19:27:49.081Z,7.90
2023-02-17T19:30:17.668Z,11.05
2023-02-17T19:32:44.351Z,10.27
2023-02-17T19:35:11.754Z,7.70
2023-02-17T19:37:38.581Z,8.13
2023-02-17T19:40:05.963Z,10.13
2023-02-17T19:42:32.818Z,8.95
2023-02-17T19:44:59.528Z,6.80
2023-02-17T19:47:26.287Z,12.00
2023-02-17T19:49:52.983Z,8.52
2023-02-17T19:52:21.136Z,10.93
2023-02-17T19:54:49.556Z,9.60
2023-02-17T19:57:18.434Z,10.73
2023-02-17T19:59:45.975Z,11.88
2023-02-17T20:02:14.599Z,10.20
2023-02-17T20:04:42.125Z,9.05
2023-02-17T20:07:08.860Z,12.95
2023-02-17T20:09:35.633Z,7.57
2023-02-17T20:12:02.562Z,9.43
2023-02-17T22:09:47.068Z,11.15
2023-02-17T22:23:06.855Z,15.52
2023-02-17T22:25:58.565Z,14.63
2023-02-17T22:54:21.050Z,13.70
2023-02-17T23:51:06.101Z,17.08
